Hill City, Kansas
Current Conditions -  °F | °C
As of 5:53 PM on Saturday 22 Nov 2014 (Local Time) from KHLC Reporting Station
Clear Clear  
Wind Chill: 56°   Ceiling: Unl
Heat Index: 56°   Visibility: 10mi
Dew Point: 29°   Wind: 9mph
Humidity: 36%   Direction: 200°SSW
Pressure: 29.56"   Gusts: NA
Location:  39.36°N, 99.84°W
Report Text: KHLC 222353Z AUTO 20008KT 10SM CLR 13/M02 A2956 RMK AO2 SLP017 T01331017 10194 20133 56019
Loading
Personal Weather Stations






























Interactive Weather Map New forecast layout! Learn more

10-Day Weather Forecast

Advertisements
Track Severe Weather on mobile